Time;durP1;ratioP1;P1;durP2;ratioP2;P2;SDS_P1;SDS_P2;PMS_P1;PMS_P2;Temp;Humidity;BMP_temperature;BMP_pressure;BME280_temperature;BME280_humidity;BME280_pressure;Samples;Min_cycle;Max_cycle;Signal;HPM_P1;HPM_P2
2021/11/17 02:26:28;;;;;;;7.00;5.40;;;;;;;6.46;100.00;96649.47;4975578;28;20664;-55
2021/11/17 02:29:30;;;;;;;5.93;4.70;;;;;;;6.68;100.00;96653.94;4984876;28;20559;-56
2021/11/17 02:32:20;;;;;;;5.95;4.70;;;;;;;6.53;100.00;96648.88;4978429;28;20078;-55
2021/11/17 02:35:06;;;;;;;5.72;4.43;;;;;;;6.53;100.00;96653.28;4976717;28;20081;-52
2021/11/17 02:37:50;;;;;;;5.82;5.20;;;;;;;6.51;100.00;96652.59;4999167;28;20082;-54
2021/11/17 02:40:40;;;;;;;7.72;5.47;;;;;;;6.55;100.00;96654.03;4976410;28;20070;-56
2021/11/17 02:43:34;;;;;;;8.95;5.97;;;;;;;6.68;100.00;96646.91;4975343;28;21395;-51
2021/11/17 02:46:21;;;;;;;7.18;5.30;;;;;;;6.66;100.00;96651.44;4999026;28;20073;-60
2021/11/17 02:49:05;;;;;;;8.48;5.38;;;;;;;6.74;100.00;96650.84;4978396;28;20069;-57
2021/11/17 02:51:59;;;;;;;9.98;6.15;;;;;;;6.71;100.00;96653.69;4993809;28;20073;-57
2021/11/17 02:54:44;;;;;;;8.63;6.03;;;;;;;6.74;100.00;96651.66;4994885;28;20552;-57
2021/11/17 02:57:25;;;;;;;8.48;5.93;;;;;;;6.66;100.00;96659.28;4996218;28;20054;-52
2021/11/17 03:00:12;;;;;;;7.03;5.22;;;;;;;6.56;100.00;96655.69;4996762;28;20093;-54
2021/11/17 03:03:02;;;;;;;10.32;7.15;;;;;;;6.74;100.00;96653.47;4995800;28;20073;-54
2021/11/17 03:05:59;;;;;;;9.18;6.82;;;;;;;6.58;100.00;96649.38;4999217;28;20066;-60
2021/11/17 03:08:47;;;;;;;9.70;7.15;;;;;;;6.45;100.00;96651.25;4995181;28;20080;-51
2021/11/17 03:11:33;;;;;;;10.35;7.65;;;;;;;6.66;100.00;96656.66;4995007;28;20076;-56
2021/11/17 03:14:15;;;;;;;10.73;7.63;;;;;;;6.70;100.00;96660.72;4995770;28;20093;-56
2021/11/17 03:16:58;;;;;;;12.77;8.43;;;;;;;6.83;100.00;96658.00;4995559;28;20050;-61
2021/11/17 03:19:39;;;;;;;15.52;9.27;;;;;;;6.79;100.00;96659.22;4998158;28;20085;-53
2021/11/17 03:22:15;;;;;;;;;;;;;;;6.66;100.00;96662.75;4997790;28;20323;-58
2021/11/17 03:25:15;;;;;;;15.68;9.82;;;;;;;6.41;100.00;96660.28;4996678;28;20396;-57
2021/11/17 03:28:00;;;;;;;13.60;8.77;;;;;;;6.59;100.00;96666.78;5001380;28;20528;-59
2021/11/17 03:30:47;;;;;;;15.30;9.63;;;;;;;6.62;100.00;96657.84;4997493;28;20081;-56
2021/11/17 03:33:53;;;;;;;17.23;10.75;;;;;;;6.62;100.00;96663.09;4999467;28;20066;-59
2021/11/17 03:36:41;;;;;;;17.20;10.35;;;;;;;6.75;100.00;96666.47;4995919;28;20081;-56
2021/11/17 03:39:52;;;;;;;16.40;10.15;;;;;;;6.55;100.00;96667.97;4993217;28;20077;-58
2021/11/17 03:42:35;;;;;;;14.60;9.13;;;;;;;6.61;100.00;96667.50;5002274;28;20123;-56
2021/11/17 03:45:31;;;;;;;16.25;10.35;;;;;;;6.69;100.00;96674.78;4994628;28;20073;-51
2021/11/17 03:48:18;;;;;;;17.50;10.98;;;;;;;6.90;100.00;96674.94;4989080;28;20528;-58
2021/11/17 03:51:21;;;;;;;16.95;10.70;;;;;;;6.86;100.00;96674.34;5003601;28;20075;-58
2021/11/17 03:54:02;;;;;;;17.38;11.20;;;;;;;6.55;100.00;96672.38;4992745;28;20046;-57
2021/11/17 03:56:50;;;;;;;19.27;11.13;;;;;;;6.85;100.00;96675.31;4996312;28;20437;-58
2021/11/17 03:59:41;;;;;;;18.73;10.98;;;;;;;6.94;100.00;96676.38;4996102;28;20074;-59
2021/11/17 04:02:26;;;;;;;17.58;11.18;;;;;;;7.06;100.00;96675.44;5000645;28;20066;-56
2021/11/17 04:05:11;;;;;;;18.55;11.50;;;;;;;6.63;100.00;96677.84;4991230;28;20086;-60
2021/11/17 04:07:52;;;;;;;17.75;11.02;;;;;;;6.79;100.00;96677.56;4996684;28;20082;-58
2021/11/17 04:10:40;;;;;;;18.45;10.95;;;;;;;6.96;100.00;96673.66;5002451;28;20221;-60
2021/11/17 04:13:19;;;;;;;17.25;11.30;;;;;;;7.03;100.00;96675.69;4995983;28;21344;-57
2021/11/17 04:16:04;;;;;;;18.17;11.27;;;;;;;7.23;100.00;96676.78;4997171;28;20058;-57
2021/11/17 04:18:46;;;;;;;17.67;11.10;;;;;;;7.22;100.00;96682.13;4978920;28;20556;-59
2021/11/17 04:21:54;;;;;;;17.50;10.52;;;;;;;7.38;100.00;96680.81;4990684;28;20064;-58
2021/11/17 04:24:47;;;;;;;17.92;11.70;;;;;;;7.38;100.00;96685.25;4993490;28;20535;-60
2021/11/17 04:27:31;;;;;;;17.63;10.23;;;;;;;7.46;100.00;96684.63;4992055;28;20456;-58
2021/11/17 04:30:30;;;;;;;16.17;10.52;;;;;;;7.58;100.00;96681.91;4996799;28;20070;-58
2021/11/17 04:33:22;;;;;;;18.05;11.35;;;;;;;7.51;100.00;96682.50;4995800;28;20070;-58
2021/11/17 04:36:11;;;;;;;19.20;11.10;;;;;;;7.25;100.00;96684.50;4999557;28;20061;-58
2021/11/17 04:38:56;;;;;;;17.95;11.23;;;;;;;7.42;100.00;96681.41;4994053;28;20110;-57
2021/11/17 04:41:59;;;;;;;18.73;11.65;;;;;;;7.52;100.00;96682.38;4995695;28;20052;-59
2021/11/17 04:44:49;;;;;;;19.88;11.32;;;;;;;7.49;100.00;96679.16;4980925;28;20065;-57
2021/11/17 04:47:33;;;;;;;16.27;10.48;;;;;;;7.09;100.00;96688.34;4999661;28;20065;-58
2021/11/17 04:50:29;;;;;;;19.60;11.88;;;;;;;7.11;100.00;96683.78;4999514;28;20107;-58
2021/11/17 04:53:14;;;;;;;18.35;10.75;;;;;;;7.44;100.00;96686.56;4992654;28;20073;-55
2021/11/17 04:55:59;;;;;;;17.90;11.18;;;;;;;7.74;100.00;96671.03;4996326;28;20088;-60
2021/11/17 04:58:50;;;;;;;18.27;10.93;;;;;;;7.36;100.00;96674.88;4996777;28;20077;-55
2021/11/17 05:01:28;;;;;;;;;;;;;;;7.47;100.00;96678.47;5000787;28;20058;-58
2021/11/17 05:04:21;;;;;;;18.60;10.50;;;;;;;7.61;100.00;96678.19;4995281;28;20332;-60
2021/11/17 05:07:07;;;;;;;19.27;11.23;;;;;;;7.59;100.00;96677.47;4992379;28;20089;-58
2021/11/17 05:09:45;;;;;;;17.38;10.95;;;;;;;7.50;100.00;96667.69;4993786;28;20061;-58
2021/11/17 05:12:31;;;;;;;20.00;11.70;;;;;;;7.70;100.00;96669.56;4989328;28;20058;-58
2021/11/17 05:15:10;;;;;;;21.05;11.43;;;;;;;7.72;100.00;96672.94;4978696;28;20070;-59
2021/11/17 05:17:47;;;;;;;17.92;11.15;;;;;;;8.03;100.00;96670.47;4977106;28;20075;-58
2021/11/17 05:20:32;;;;;;;21.42;12.70;;;;;;;7.60;100.00;96679.13;4972859;28;20539;-59
2021/11/17 05:23:23;;;;;;;20.52;12.00;;;;;;;7.82;100.00;96676.50;4979088;28;20090;-57
2021/11/17 05:26:06;;;;;;;17.90;11.15;;;;;;;7.82;100.00;96670.41;4977854;28;20082;-58
2021/11/17 05:28:54;;;;;;;17.20;11.38;;;;;;;7.94;100.00;96681.72;4998246;28;20082;-58
2021/11/17 05:31:36;;;;;;;17.67;11.63;;;;;;;7.80;100.00;96681.03;4996049;28;20305;-55
2021/11/17 05:34:29;;;;;;;20.50;11.50;;;;;;;7.82;100.00;96673.03;4994770;28;20073;-56
2021/11/17 05:37:10;;;;;;;18.10;11.18;;;;;;;7.88;100.00;96671.69;4993524;28;20073;-60
2021/11/17 05:39:54;;;;;;;18.65;11.35;;;;;;;8.19;100.00;96670.91;4975345;28;20074;-56
2021/11/17 05:42:36;;;;;;;17.98;11.07;;;;;;;7.78;100.00;96676.88;4994414;28;20076;-58
2021/11/17 05:45:26;;;;;;;20.05;11.57;;;;;;;7.73;100.00;96681.63;4984468;28;20078;-58
2021/11/17 05:48:01;;;;;;;;;;;;;;;7.80;100.00;96674.94;4988377;28;20058;-58
2021/11/17 05:50:45;;;;;;;16.17;10.18;;;;;;;7.40;100.00;96672.84;4988248;28;19953;-57
2021/11/17 05:53:42;;;;;;;17.70;10.65;;;;;;;7.60;100.00;96685.25;4992338;28;20074;-55
2021/11/17 05:56:25;;;;;;;19.60;11.57;;;;;;;7.56;100.00;96690.84;4990085;28;20397;-60
2021/11/17 05:59:10;;;;;;;17.50;10.88;;;;;;;7.48;100.00;96694.06;4999132;28;20777;-58
2021/11/17 06:01:50;;;;;;;17.33;11.30;;;;;;;7.70;100.00;96695.81;4998325;28;20069;-54
2021/11/17 06:04:19;;;;;;;;;;;;;;;7.69;100.00;96695.97;4974274;28;20297;-55
2021/11/17 06:06:47;;;;;;;16.55;10.77;;;;;;;7.97;100.00;96692.81;4980902;28;19949;-57
2021/11/17 06:09:15;;;;;;;20.75;11.63;;;;;;;8.10;100.00;96697.91;4973630;28;20066;-57
2021/11/17 06:11:47;;;;;;;19.83;11.77;;;;;;;8.04;100.00;96704.50;4982849;28;20038;-57
2021/11/17 06:14:20;;;;;;;19.73;12.05;;;;;;;8.22;100.00;96706.59;4988856;28;20058;-58
2021/11/17 06:16:50;;;;;;;19.38;11.93;;;;;;;8.12;100.00;96708.28;4986845;28;20086;-55
2021/11/17 06:19:21;;;;;;;18.92;11.77;;;;;;;8.29;100.00;96695.50;4970916;28;20584;-55
2021/11/17 06:21:50;;;;;;;19.98;12.40;;;;;;;8.14;100.00;96696.72;4985752;28;20342;-59
2021/11/17 06:24:22;;;;;;;24.55;12.32;;;;;;;7.75;100.00;96713.88;4987438;28;20066;-56
2021/11/17 06:26:52;;;;;;;20.30;12.25;;;;;;;7.87;100.00;96712.03;4987478;28;20070;-57
2021/11/17 06:29:23;;;;;;;19.33;12.10;;;;;;;7.90;100.00;96715.25;4996638;28;20074;-55
2021/11/17 06:31:54;;;;;;;20.23;12.32;;;;;;;7.48;100.00;96719.47;5006176;28;20728;-55
2021/11/17 06:34:27;;;;;;;18.42;11.68;;;;;;;7.66;100.00;96718.03;5002367;28;20535;-59
2021/11/17 06:36:55;;;;;;;19.45;12.05;;;;;;;7.67;100.00;96717.06;4991785;28;20064;-55
2021/11/17 06:39:25;;;;;;;21.80;12.23;;;;;;;7.53;100.00;96725.19;4987084;28;20084;-56
2021/11/17 06:41:55;;;;;;;21.40;11.95;;;;;;;7.51;100.00;96714.81;4988129;28;20039;-54
2021/11/17 06:44:24;;;;;;;;;;;;;;;7.27;100.00;96729.84;4993980;28;20066;-56
2021/11/17 06:46:53;;;;;;;20.70;12.00;;;;;;;7.43;100.00;96726.84;4986902;28;20348;-56
2021/11/17 06:49:22;;;;;;;19.50;11.88;;;;;;;7.19;100.00;96733.06;4989981;28;20078;-53
2021/11/17 06:51:50;;;;;;;19.80;11.82;;;;;;;6.86;100.00;96734.63;4986946;28;20081;-59
2021/11/17 06:54:19;;;;;;;21.45;12.63;;;;;;;7.35;100.00;96738.78;4987080;28;20079;-58
2021/11/17 06:56:48;;;;;;;20.73;12.02;;;;;;;7.24;100.00;96743.19;4987494;28;20062;-55
2021/11/17 06:59:18;;;;;;;19.83;11.98;;;;;;;7.02;100.00;96752.69;4987601;28;20066;-56
2021/11/17 07:01:47;;;;;;;21.40;12.27;;;;;;;7.26;100.00;96739.50;4987589;28;20094;-57
2021/11/17 07:04:16;;;;;;;21.45;12.20;;;;;;;7.09;100.00;96743.41;4989509;28;20480;-58
2021/11/17 07:06:44;;;;;;;22.30;12.15;;;;;;;7.02;100.00;96746.56;4987263;28;20081;-56
2021/11/17 07:09:13;;;;;;;21.25;12.25;;;;;;;7.10;100.00;96752.09;4991862;28;20074;-54
2021/11/17 07:11:41;;;;;;;21.23;12.43;;;;;;;7.11;100.00;96754.59;4998576;28;20732;-59
2021/11/17 07:14:12;;;;;;;20.38;11.88;;;;;;;7.14;100.00;96756.97;4990442;28;20416;-56
2021/11/17 07:16:42;;;;;;;21.52;12.15;;;;;;;7.23;100.00;96755.47;4995220;28;20103;-58
2021/11/17 07:19:12;;;;;;;21.90;12.25;;;;;;;7.34;100.00;96763.34;4984126;28;20041;-58
2021/11/17 07:21:42;;;;;;;21.53;12.13;;;;;;;7.17;100.00;96761.16;5000604;28;20073;-55
2021/11/17 07:24:11;;;;;;;24.13;12.77;;;;;;;7.41;100.00;96763.72;4994008;28;20493;-54
2021/11/17 07:26:39;;;;;;;21.40;12.40;;;;;;;7.22;100.00;96763.44;4997279;28;20512;-56
2021/11/17 07:29:08;;;;;;;20.25;12.05;;;;;;;7.28;100.00;96762.97;4993807;28;20034;-58
2021/11/17 07:31:36;;;;;;;19.92;11.85;;;;;;;7.57;100.00;96760.72;4998232;28;20066;-58
2021/11/17 07:34:07;;;;;;;23.13;12.85;;;;;;;7.82;100.00;96768.38;4990976;28;20552;-57
2021/11/17 07:36:35;;;;;;;21.38;12.50;;;;;;;7.51;100.00;96769.09;4995564;28;20053;-55
2021/11/17 07:39:05;;;;;;;19.95;11.52;;;;;;;7.49;100.00;96778.88;4996100;28;20054;-56
2021/11/17 07:41:34;;;;;;;19.00;11.48;;;;;;;7.67;100.00;96772.19;4982699;28;20100;-56
2021/11/17 07:44:02;;;;;;;21.17;12.38;;;;;;;7.38;100.00;96777.91;4987632;28;20074;-57
2021/11/17 07:46:31;;;;;;;20.33;12.40;;;;;;;7.76;100.00;96774.09;4983256;28;20104;-56
2021/11/17 07:49:00;;;;;;;20.67;12.23;;;;;;;7.74;100.00;96770.78;4988696;28;20492;-54
2021/11/17 07:51:30;;;;;;;21.85;12.43;;;;;;;8.07;100.00;96769.91;4995795;28;20057;-55
2021/11/17 07:53:58;;;;;;;20.20;11.68;;;;;;;7.89;100.00;96775.78;4995843;28;20069;-53
2021/11/17 07:56:27;;;;;;;21.58;12.38;;;;;;;7.97;100.00;96779.47;4997875;28;20089;-56
2021/11/17 07:58:55;;;;;;;19.33;11.55;;;;;;;7.90;100.00;96783.53;4995348;28;20073;-54
2021/11/17 08:01:25;;;;;;;20.13;12.60;;;;;;;8.23;100.00;96785.28;5002275;28;20475;-58
2021/11/17 08:03:54;;;;;;;21.70;11.85;;;;;;;8.42;100.00;96774.16;4997885;28;20077;-57
2021/11/17 08:06:25;;;;;;;20.45;12.00;;;;;;;8.12;100.00;96779.22;4989074;28;20181;-56
2021/11/17 08:08:55;;;;;;;;;;;;;;;8.31;100.00;96787.31;4990215;28;20441;-57
2021/11/17 08:11:24;;;;;;;18.27;11.35;;;;;;;8.35;100.00;96782.63;5004490;28;19941;-58
2021/11/17 08:13:52;;;;;;;18.35;11.13;;;;;;;8.14;100.00;96786.03;4990428;28;20085;-56
2021/11/17 08:16:21;;;;;;;20.52;12.30;;;;;;;8.17;100.00;96792.81;5005113;28;20069;-59
2021/11/17 08:18:49;;;;;;;19.05;11.63;;;;;;;8.31;100.00;96790.78;4990060;28;20072;-57
2021/11/17 08:21:18;;;;;;;18.38;11.75;;;;;;;8.20;100.00;96796.06;4999242;28;20509;-59
2021/11/17 08:23:47;;;;;;;18.70;11.35;;;;;;;8.82;100.00;96791.97;5001031;28;20076;-54
2021/11/17 08:26:19;;;;;;;20.85;12.88;;;;;;;8.71;100.00;96789.41;5003444;28;20049;-55
2021/11/17 08:28:47;;;;;;;19.92;11.50;;;;;;;9.01;100.00;96781.59;4994648;28;20525;-56
2021/11/17 08:31:16;;;;;;;20.52;11.93;;;;;;;9.06;100.00;96789.13;5001717;28;20918;-56
2021/11/17 08:33:45;;;;;;;21.23;13.05;;;;;;;8.92;100.00;96792.06;4996070;28;20078;-57
2021/11/17 08:36:14;;;;;;;20.17;12.45;;;;;;;9.06;100.00;96811.97;4995447;28;20062;-58
2021/11/17 08:38:43;;;;;;;19.60;12.50;;;;;;;9.07;100.00;96808.38;5002811;28;20070;-58
2021/11/17 08:41:12;;;;;;;21.00;12.13;;;;;;;9.11;100.00;96813.25;4992330;28;20074;-54
2021/11/17 08:43:42;;;;;;;16.83;11.03;;;;;;;8.84;100.00;96812.88;4997656;28;20096;-57
2021/11/17 08:46:11;;;;;;;18.52;11.25;;;;;;;8.88;100.00;96817.78;4996257;28;20141;-56
2021/11/17 08:48:41;;;;;;;17.42;10.73;;;;;;;9.02;100.00;96820.09;4998873;28;20504;-58
2021/11/17 08:51:12;;;;;;;16.95;10.73;;;;;;;8.87;100.00;96823.16;4994156;28;20072;-60
2021/11/17 08:53:43;;;;;;;18.20;11.30;;;;;;;8.78;100.00;96827.38;4989450;28;20077;-56
2021/11/17 08:56:11;;;;;;;15.93;10.10;;;;;;;9.01;100.00;96836.84;5002337;28;20070;-56
2021/11/17 08:58:42;;;;;;;17.05;10.98;;;;;;;8.55;100.00;96831.84;4999495;28;20074;-59
2021/11/17 09:01:11;;;;;;;16.60;10.38;;;;;;;8.88;100.00;96832.69;4998402;28;20516;-57
2021/11/17 09:03:40;;;;;;;18.08;11.30;;;;;;;9.02;100.00;96837.69;4995264;28;20069;-57
2021/11/17 09:06:10;;;;;;;15.82;10.68;;;;;;;9.00;100.00;96836.97;4997873;28;20097;-60
2021/11/17 09:08:39;;;;;;;19.08;11.20;;;;;;;8.47;100.00;96835.09;4994006;28;20084;-57
2021/11/17 09:11:11;;;;;;;17.48;9.77;;;;;;;8.70;100.00;96846.38;5007479;28;20065;-58
2021/11/17 09:13:42;;;;;;;17.38;10.25;;;;;;;8.76;100.00;96851.16;4996643;28;20492;-58
2021/11/17 09:16:13;;;;;;;15.95;10.52;;;;;;;8.45;100.00;96847.50;4997397;28;20070;-58
2021/11/17 09:18:42;;;;;;;16.77;10.73;;;;;;;8.79;100.00;96848.28;4993870;28;20460;-57
2021/11/17 09:21:13;;;;;;;17.83;9.98;;;;;;;8.87;100.00;96846.81;5003519;28;20077;-54
2021/11/17 09:23:42;;;;;;;19.60;10.27;;;;;;;9.00;100.00;96840.44;4991461;28;20081;-54
2021/11/17 09:26:11;;;;;;;14.02;8.88;;;;;;;8.64;100.00;96857.41;5000263;28;20061;-59
2021/11/17 09:28:42;;;;;;;13.98;9.38;;;;;;;8.79;100.00;96861.44;4998699;28;20072;-56
2021/11/17 09:31:10;;;;;;;;;;;;;;;9.24;100.00;96848.09;4990125;28;20417;-58
2021/11/17 09:33:45;;;;;;;17.02;9.38;;;;;;;9.10;100.00;96848.41;4991038;28;19952;-60
2021/11/17 09:36:13;;;;;;;;;;;;;;;9.20;100.00;96841.44;4997932;28;20460;-57
2021/11/17 09:38:42;;;;;;;14.45;8.77;;;;;;;8.96;100.00;96848.72;4989196;28;19957;-59
2021/11/17 09:41:13;;;;;;;12.18;8.35;;;;;;;8.55;100.00;96848.44;5010829;28;20077;-57
2021/11/17 09:43:46;;;;;;;13.43;8.23;;;;;;;8.88;100.00;96853.75;4990464;28;20077;-58
2021/11/17 09:46:19;;;;;;;13.18;8.25;;;;;;;8.86;100.00;96855.69;4994709;28;20256;-56
2021/11/17 09:48:50;;;;;;;12.93;8.77;;;;;;;8.92;100.00;96857.81;4990183;28;20475;-59
2021/11/17 09:51:20;;;;;;;12.98;9.07;;;;;;;9.34;100.00;96850.81;4994725;28;20061;-59
2021/11/17 09:53:51;;;;;;;13.13;8.30;;;;;;;9.05;100.00;96845.34;4993053;28;20578;-59
2021/11/17 09:56:24;;;;;;;13.20;8.45;;;;;;;9.12;100.00;96846.50;4992842;28;20572;-53
2021/11/17 09:58:56;;;;;;;11.90;8.52;;;;;;;9.48;100.00;96847.03;4992973;28;20081;-58
2021/11/17 10:01:33;;;;;;;12.10;8.32;;;;;;;9.21;100.00;96848.34;4997695;28;20084;-56
2021/11/17 10:04:05;;;;;;;11.35;7.38;;;;;;;8.94;100.00;96863.78;4997059;28;20078;-56
2021/11/17 10:07:13;;;;;;;11.52;7.05;;;;;;;8.95;100.00;96862.84;4990210;28;20065;-56
2021/11/17 10:12:53;;;;;;;12.98;7.15;;;;;;;8.97;100.00;96874.88;4957950;28;20505;-58
2021/11/17 10:15:25;;;;;;;13.63;8.52;;;;;;;8.90;100.00;96881.59;4962945;28;20135;-58
2021/11/17 10:17:56;;;;;;;10.43;7.72;;;;;;;8.82;100.00;96870.88;4977645;28;20058;-59
2021/11/17 10:20:32;;;;;;;13.57;8.00;;;;;;;9.07;100.00;96872.34;4994913;28;20429;-54
2021/11/17 10:23:18;;;;;;;10.35;7.50;;;;;;;8.90;100.00;96880.75;4993878;28;21710;-56
2021/11/17 10:25:51;;;;;;;12.88;8.63;;;;;;;9.23;100.00;96875.41;4994196;28;20663;-58
2021/11/17 10:28:48;;;;;;;17.00;10.07;;;;;;;8.41;100.00;96882.06;4992935;28;20083;-57
2021/11/17 10:31:28;;;;;;;14.05;8.68;;;;;;;8.60;100.00;96886.69;5001700;28;20527;-58
2021/11/17 10:34:01;;;;;;;12.98;8.73;;;;;;;8.99;100.00;96869.50;4994109;28;20073;-56
2021/11/17 10:36:33;;;;;;;13.90;8.88;;;;;;;8.77;100.00;96870.38;4989084;28;20124;-57
2021/11/17 10:39:11;;;;;;;15.00;8.80;;;;;;;8.87;100.00;96871.31;4995406;28;20058;-56
2021/11/17 10:41:56;;;;;;;11.32;7.65;;;;;;;8.40;100.00;96867.25;4994823;28;20534;-56
2021/11/17 10:44:46;;;;;;;9.95;7.35;;;;;;;8.62;100.00;96859.31;4991891;28;20110;-56
2021/11/17 10:47:20;;;;;;;13.68;8.80;;;;;;;8.88;100.00;96859.00;5000029;28;20081;-57
2021/11/17 10:49:51;;;;;;;11.75;7.90;;;;;;;8.99;100.00;96851.94;4989678;28;20078;-58
2021/11/17 10:52:30;;;;;;;13.15;7.97;;;;;;;8.70;100.00;96848.19;4997883;28;20078;-57
2021/11/17 10:55:02;;;;;;;11.18;7.75;;;;;;;8.73;100.00;96851.41;4992163;28;20062;-55
2021/11/17 10:57:34;;;;;;;13.00;8.20;;;;;;;9.08;100.00;96838.97;4998695;28;20168;-58
2021/11/17 11:00:08;;;;;;;11.77;7.88;;;;;;;9.34;100.00;96850.00;4995933;28;20062;-58
2021/11/17 11:02:40;;;;;;;10.30;7.28;;;;;;;8.79;100.00;96836.94;4991566;28;20070;-58
2021/11/17 11:05:12;;;;;;;10.05;7.25;;;;;;;8.74;100.00;96845.19;4996119;28;20729;-56
2021/11/17 11:07:46;;;;;;;9.65;7.18;;;;;;;8.82;100.00;96841.94;4985617;28;20546;-57
2021/11/17 11:10:19;;;;;;;9.98;6.50;;;;;;;8.88;100.00;96845.84;4977804;28;20402;-57
2021/11/17 11:12:48;;;;;;;9.52;6.97;;;;;;;9.04;100.00;96835.75;4999917;28;20062;-57
2021/11/17 11:15:20;;;;;;;11.13;7.28;;;;;;;8.63;100.00;96847.00;5002323;28;20073;-58
2021/11/17 11:18:25;;;;;;;10.77;6.70;;;;;;;8.41;100.00;96846.09;4983156;28;20073;-56
2021/11/17 11:20:55;;;;;;;10.80;7.13;;;;;;;8.74;100.00;96844.34;4986546;28;20066;-56
2021/11/17 11:23:27;;;;;;;7.68;5.38;;;;;;;8.39;100.00;96852.41;5001042;28;20066;-58
2021/11/17 11:26:09;;;;;;;8.10;5.25;;;;;;;8.18;100.00;96850.50;4994421;28;20061;-58
2021/11/17 11:28:40;;;;;;;8.35;5.68;;;;;;;8.07;100.00;96843.44;5002371;28;20065;-55
2021/11/17 11:31:31;;;;;;;6.05;4.57;;;;;;;8.09;100.00;96848.59;4992229;28;21337;-55
2021/11/17 11:34:37;;;;;;;8.05;5.63;;;;;;;8.67;100.00;96836.13;4995831;28;20437;-61
2021/11/17 11:37:10;;;;;;;7.68;5.35;;;;;;;8.73;100.00;96845.31;5003072;28;20042;-59
2021/11/17 11:39:44;;;;;;;7.97;5.88;;;;;;;8.63;100.00;96842.56;4997258;28;20074;-53
2021/11/17 11:42:21;;;;;;;7.25;5.95;;;;;;;8.71;100.00;96828.84;4999011;28;20085;-56
2021/11/17 11:44:51;;;;;;;6.03;5.07;;;;;;;8.83;100.00;96832.25;5007876;28;20062;-58
2021/11/17 11:47:51;;;;;;;4.90;4.10;;;;;;;8.75;100.00;96822.38;4990902;28;20638;-58
2021/11/17 11:51:06;;;;;;;5.82;4.95;;;;;;;9.00;100.00;96831.72;4998390;28;20132;-56
2021/11/17 11:54:05;;;;;;;;;;;;;;;9.16;100.00;96831.28;4983881;28;20065;-59
2021/11/17 11:56:43;;;;;;;5.45;4.60;;;;;;;9.07;100.00;96832.88;5006923;28;19955;-56
2021/11/17 11:59:15;;;;;;;6.85;5.70;;;;;;;9.08;100.00;96828.44;4995472;28;20057;-54
2021/11/17 12:01:44;;;;;;;6.07;5.22;;;;;;;9.29;100.00;96829.31;4997906;28;20787;-54
2021/11/17 12:04:16;;;;;;;6.30;4.90;;;;;;;8.94;100.00;96830.41;4993900;28;20077;-58
2021/11/17 12:06:52;;;;;;;5.82;5.10;;;;;;;8.88;100.00;96833.56;5000132;28;20065;-55
2021/11/17 12:09:28;;;;;;;5.30;4.60;;;;;;;9.04;100.00;96836.59;4992525;28;20457;-57
2021/11/17 12:12:00;;;;;;;5.63;4.97;;;;;;;9.09;100.00;96833.59;4994295;28;20111;-58
2021/11/17 12:14:44;;;;;;;7.53;5.72;;;;;;;9.11;100.00;96830.81;4992094;28;20497;-53
2021/11/17 12:17:13;;;;;;;5.20;4.65;;;;;;;8.97;100.00;96837.22;4996947;28;20073;-56
2021/11/17 12:19:48;;;;;;;5.38;4.72;;;;;;;8.91;100.00;96840.34;4998551;28;20425;-55
2021/11/17 12:22:20;;;;;;;6.22;5.28;;;;;;;8.93;100.00;96838.44;4996615;28;20066;-53
2021/11/17 12:24:54;;;;;;;6.20;5.30;;;;;;;8.65;100.00;96845.94;5000695;28;20500;-53
2021/11/17 12:27:31;;;;;;;6.03;5.32;;;;;;;8.84;100.00;96852.31;4991010;28;20469;-56
2021/11/17 12:30:04;;;;;;;6.70;5.28;;;;;;;8.86;100.00;96855.69;4997193;28;20458;-57
2021/11/17 12:32:36;;;;;;;6.03;4.95;;;;;;;8.18;100.00;96854.91;4996060;28;20634;-53
2021/11/17 12:35:10;;;;;;;5.13;4.63;;;;;;;8.72;100.00;96854.16;4993568;28;20068;-51
2021/11/17 12:37:45;;;;;;;6.13;5.15;;;;;;;8.51;100.00;96859.34;5000150;28;20555;-55
2021/11/17 12:40:17;;;;;;;7.03;5.03;;;;;;;8.78;100.00;96858.94;4994493;28;20065;-55
2021/11/17 12:42:54;;;;;;;5.43;4.72;;;;;;;8.74;100.00;96850.47;4996340;28;20520;-56
2021/11/17 12:45:25;;;;;;;6.63;5.22;;;;;;;8.91;100.00;96848.22;4995013;28;20072;-52
2021/11/17 12:47:57;;;;;;;5.85;5.05;;;;;;;9.04;100.00;96841.03;5000210;28;20080;-56
2021/11/17 12:50:29;;;;;;;7.45;5.88;;;;;;;9.27;100.00;96834.69;4991345;28;20078;-56
2021/11/17 12:53:01;;;;;;;5.82;5.00;;;;;;;9.17;100.00;96835.59;4974894;28;20038;-53
2021/11/17 12:55:34;;;;;;;6.47;5.45;;;;;;;8.91;100.00;96835.94;4983640;28;20086;-58
2021/11/17 12:58:09;;;;;;;6.32;5.43;;;;;;;9.43;100.00;96831.63;4979881;28;20073;-51
2021/11/17 13:00:57;;;;;;;6.07;4.90;;;;;;;9.34;100.00;96842.09;4978649;28;20069;-57
2021/11/17 13:03:31;;;;;;;5.63;4.57;;;;;;;9.30;100.00;96840.69;4990430;28;20109;-57
2021/11/17 13:06:04;;;;;;;5.65;5.07;;;;;;;9.27;100.00;96839.13;4981005;28;20127;-55
2021/11/17 13:08:34;;;;;;;5.97;4.95;;;;;;;9.26;100.00;96840.94;4979832;28;20074;-56
2021/11/17 13:11:12;;;;;;;6.05;4.90;;;;;;;9.21;100.00;96843.09;4996398;28;20082;-56
2021/11/17 13:13:46;;;;;;;5.90;4.70;;;;;;;8.98;100.00;96841.50;4998450;28;20489;-55
2021/11/17 13:16:20;;;;;;;7.25;5.35;;;;;;;8.86;100.00;96842.53;4999876;28;20222;-59
2021/11/17 13:18:55;;;;;;;8.00;5.65;;;;;;;8.94;100.00;96848.81;4996627;28;20085;-58
2021/11/17 13:21:35;;;;;;;7.20;5.43;;;;;;;8.94;100.00;96843.56;4996774;28;20413;-57
2021/11/17 13:24:32;;;;;;;7.50;5.78;;;;;;;8.91;100.00;96846.47;4992336;28;20062;-54
2021/11/17 13:27:22;;;;;;;6.85;5.90;;;;;;;9.02;100.00;96849.06;4996381;28;20426;-55
2021/11/17 13:29:56;;;;;;;6.35;5.15;;;;;;;8.83;100.00;96848.88;4998314;28;20740;-54
2021/11/17 13:32:33;;;;;;;7.30;5.95;;;;;;;8.94;100.00;96848.00;4998435;28;20073;-54
2021/11/17 13:35:31;;;;;;;8.77;5.88;;;;;;;8.86;100.00;96850.41;4995282;28;20081;-55
2021/11/17 13:38:18;;;;;;;7.07;5.32;;;;;;;9.08;100.00;96847.69;4996785;28;20085;-55
2021/11/17 13:40:48;;;;;;;7.32;5.57;;;;;;;9.01;100.00;96852.63;4993525;28;20073;-55
2021/11/17 13:43:18;;;;;;;8.65;5.63;;;;;;;9.04;100.00;96862.91;4999744;28;20118;-57
2021/11/17 13:45:48;;;;;;;8.07;5.70;;;;;;;9.13;100.00;96858.69;4991513;28;20512;-57
2021/11/17 13:48:19;;;;;;;7.90;5.22;;;;;;;9.32;100.00;96854.53;4997282;28;20065;-55
2021/11/17 13:50:51;;;;;;;6.38;4.93;;;;;;;9.57;100.00;96853.34;4995526;28;20066;-51
2021/11/17 13:53:20;;;;;;;6.53;5.10;;;;;;;9.78;100.00;96850.69;4992558;28;20086;-54
2021/11/17 13:55:53;;;;;;;6.70;4.95;;;;;;;9.63;100.00;96847.53;4995953;28;20158;-55
2021/11/17 13:58:21;;;;;;;7.20;5.60;;;;;;;9.66;100.00;96860.44;4993314;28;20080;-60
2021/11/17 14:00:50;;;;;;;6.68;5.20;;;;;;;9.41;100.00;96866.94;4973339;28;20065;-53
2021/11/17 14:03:19;;;;;;;6.00;4.50;;;;;;;9.21;100.00;96874.66;4985452;28;20073;-55
2021/11/17 14:05:49;;;;;;;6.75;5.35;;;;;;;9.41;100.00;96867.78;4999131;28;20062;-58
2021/11/17 14:08:19;;;;;;;7.50;4.78;;;;;;;9.31;100.00;96868.66;4989702;28;20066;-59
2021/11/17 14:10:48;;;;;;;6.20;5.00;;;;;;;9.21;100.00;96869.41;5008334;28;20114;-56
2021/11/17 14:13:17;;;;;;;5.90;4.88;;;;;;;9.23;100.00;96872.75;4995459;28;20543;-57
2021/11/17 14:15:45;;;;;;;8.02;5.30;;;;;;;8.93;100.00;96880.53;4991605;28;20527;-55
2021/11/17 14:18:14;;;;;;;7.63;5.28;;;;;;;8.98;100.00;96873.94;4991000;28;20440;-54
2021/11/17 14:20:45;;;;;;;6.90;5.13;;;;;;;8.82;100.00;96883.19;4994517;28;20066;-52
2021/11/17 14:23:16;;;;;;;7.60;5.28;;;;;;;8.58;100.00;96884.19;4992882;28;20084;-55
2021/11/17 14:25:46;;;;;;;9.38;5.10;;;;;;;8.50;100.00;96881.34;4989723;28;20088;-57
2021/11/17 14:28:18;;;;;;;5.40;4.88;;;;;;;8.62;100.00;96890.84;4997311;28;20484;-54
2021/11/17 14:30:50;;;;;;;6.55;4.85;;;;;;;8.47;100.00;96892.91;4993067;28;20077;-53
2021/11/17 14:33:21;;;;;;;6.75;4.45;;;;;;;8.34;100.00;96889.53;4996560;28;20074;-56
2021/11/17 14:35:49;;;;;;;6.47;4.30;;;;;;;8.43;100.00;96893.25;5011764;28;20053;-56
2021/11/17 14:38:21;;;;;;;5.05;4.40;;;;;;;8.32;100.00;96894.06;4997256;28;20582;-53
2021/11/17 14:40:51;;;;;;;4.55;4.13;;;;;;;8.24;100.00;96889.44;5003091;28;20066;-55